アスンシオン の空港の天気 - METARとTAF

シルビオ・ペッティロッシ国際空港 ( SGAS / ASU ) - パラグアイ アスンシオン
飛行場実況気象(Metar)
観測時間12/06 06:00 PYST (12/06 09:00 UTC)
風向・風速北北東 1m/s
視程10km以上
天気現象
なし
気温25℃
湿度83%
気圧1009hPa
METARSGAS 060900Z 02002KT CAVOK 25/22 Q1009
過去の天気等 Google飛行場航空写真 Wunderground天気予報

過去48時間のMETAR

飛行場予報(TAF)
発表時間: 12/06 01:20 PYST (12/06 04:20 UTC)
予報対象時間: 6日3時 PYST ~ 7日3時 PYST
風向・風速不定 3m/s
視程10km以上
なし
6日12時 PYST ~ 6日16時 PYST に徐々に
風向・風速東 3m/s
視程10km以上
全天の8割程度の雲 雲底高度 820m
TAF SGAS 060420Z 0606/0706 VRB05KT CAVOK TX37/0619Z TN24/0610Z
BECMG 0615/0619 09006KT 9999 BKN027